createdAt,value
2022-12-16T00:01:58.664Z,-5.13
2022-12-16T00:07:00.387Z,-4.71
2022-12-16T00:12:02.190Z,-4.72
2022-12-16T00:17:03.826Z,-4.50
2022-12-16T00:22:06.629Z,-4.63
2022-12-16T00:27:08.360Z,-4.44
2022-12-16T00:32:10.659Z,-4.58
2022-12-16T00:37:13.445Z,-4.56
2022-12-16T00:42:15.119Z,-4.61
2022-12-16T00:47:16.762Z,-4.38
2022-12-16T00:52:18.410Z,-4.49
2022-12-16T00:57:20.060Z,-4.28
2022-12-16T01:02:21.863Z,-4.29
2022-12-16T01:07:23.624Z,-4.37
2022-12-16T01:12:25.310Z,-4.25
2022-12-16T01:17:27.177Z,-4.16
2022-12-16T01:22:31.401Z,-4.46
2022-12-16T01:27:33.080Z,-4.35
2022-12-16T01:32:34.760Z,-4.18
2022-12-16T01:37:36.416Z,-4.20
2022-12-16T01:42:38.072Z,-4.12
2022-12-16T01:47:39.745Z,-4.00
2022-12-16T01:52:46.568Z,-4.12
2022-12-16T01:58:02.494Z,-3.89
2022-12-16T02:03:05.236Z,-3.98
2022-12-16T02:08:09.851Z,-3.97
2022-12-16T02:13:17.224Z,-3.87
2022-12-16T02:18:40.668Z,-3.83
2022-12-16T02:24:06.168Z,-3.79
2022-12-16T02:29:32.430Z,-3.70
2022-12-16T02:34:46.168Z,-3.79
2022-12-16T02:39:56.931Z,-3.95
2022-12-16T02:45:07.396Z,-4.03
2022-12-16T02:50:33.472Z,-3.67
2022-12-16T02:55:52.980Z,-3.73
2022-12-16T03:01:13.229Z,-3.51
2022-12-16T03:06:19.499Z,-3.68
2022-12-16T03:11:21.349Z,-3.75
2022-12-16T03:16:28.961Z,-3.99
2022-12-16T03:21:38.318Z,-3.92
2022-12-16T03:27:02.453Z,-3.95
2022-12-16T03:32:12.684Z,-3.75
2022-12-16T03:37:14.761Z,-3.62
2022-12-16T03:42:17.261Z,-3.56
2022-12-16T03:47:23.597Z,-3.48
2022-12-16T03:52:25.795Z,-3.49
2022-12-16T03:57:27.424Z,-3.36
2022-12-16T04:02:29.263Z,-3.43
2022-12-16T04:07:31.214Z,-3.26
2022-12-16T04:12:51.457Z,-3.16
2022-12-16T04:18:11.860Z,-3.23
2022-12-16T04:23:32.901Z,-3.25
2022-12-16T04:28:34.870Z,-3.37
2022-12-16T04:33:55.576Z,-3.22
2022-12-16T04:39:17.471Z,-3.13
2022-12-16T04:44:37.358Z,-3.23
2022-12-16T04:49:57.973Z,-3.14
2022-12-16T04:55:18.124Z,-3.22
2022-12-16T05:00:38.348Z,-3.19
2022-12-16T05:05:58.588Z,-3.14
2022-12-16T05:11:18.852Z,-3.18
2022-12-16T05:16:39.110Z,-3.40
2022-12-16T05:21:59.342Z,-3.34
2022-12-16T05:27:19.502Z,-3.35
2022-12-16T05:32:39.910Z,-3.19
2022-12-16T05:38:00.084Z,-2.91
2022-12-16T05:43:20.342Z,-3.02
2022-12-16T05:48:46.032Z,-3.13
2022-12-16T05:54:07.634Z,-3.11
2022-12-16T05:59:27.713Z,-3.26
2022-12-16T06:04:47.990Z,-3.00
2022-12-16T06:10:08.325Z,-2.73
2022-12-16T06:15:29.637Z,-2.71
2022-12-16T06:20:49.902Z,-2.58
2022-12-16T06:26:10.118Z,-2.79
2022-12-16T06:31:30.498Z,-2.90
2022-12-16T06:36:50.708Z,-2.79
2022-12-16T06:42:10.864Z,-2.89
2022-12-16T06:47:30.813Z,-3.00
2022-12-16T06:52:51.128Z,-3.11
2022-12-16T06:58:18.046Z,-3.00
2022-12-16T07:03:38.513Z,-3.29
2022-12-16T07:08:58.984Z,-3.11
2022-12-16T07:14:19.082Z,-3.09
2022-12-16T07:19:39.241Z,-2.88
2022-12-16T07:24:59.467Z,-2.71
2022-12-16T07:30:19.840Z,-2.94
2022-12-16T07:35:40.043Z,-2.99
2022-12-16T07:41:00.431Z,-2.65
2022-12-16T07:46:20.674Z,-2.64
2022-12-16T07:51:41.054Z,-2.48
2022-12-16T07:57:01.393Z,-2.42
2022-12-16T08:02:21.577Z,-2.62
2022-12-16T08:07:41.535Z,-2.73
2022-12-16T08:13:01.685Z,-2.28
2022-12-16T08:18:21.858Z,-2.23
2022-12-16T08:23:42.181Z,-2.14
2022-12-16T08:29:27.239Z,-2.22
2022-12-16T08:34:42.580Z,-2.07
2022-12-16T08:40:33.643Z,-1.87
2022-12-16T08:45:43.294Z,-1.86
2022-12-16T08:51:03.712Z,-1.82
2022-12-16T08:56:23.857Z,-1.61
2022-12-16T09:01:44.190Z,-1.46
2022-12-16T09:07:04.700Z,-1.88
2022-12-16T09:12:25.039Z,-1.29
2022-12-16T09:17:45.201Z,-1.66
2022-12-16T09:23:05.461Z,-1.36
2022-12-16T09:28:25.434Z,-1.57
2022-12-16T09:33:45.818Z,-1.47
2022-12-16T09:39:05.575Z,-0.89
2022-12-16T09:44:50.072Z,-0.74
2022-12-16T09:50:12.412Z,-0.19
2022-12-16T09:55:59.905Z,-0.24
2022-12-16T10:01:20.742Z,-0.32
2022-12-16T10:06:59.335Z,0.17
2022-12-16T10:12:42.724Z,-0.17
2022-12-16T10:18:04.711Z,0.44
2022-12-16T10:23:56.681Z,1.36
2022-12-16T10:29:31.139Z,1.59
2022-12-16T10:34:54.992Z,0.96
2022-12-16T10:40:18.270Z,0.30
2022-12-16T10:45:44.103Z,0.34
2022-12-16T10:51:04.467Z,-0.19
2022-12-16T10:56:44.942Z,-0.31
2022-12-16T11:02:21.700Z,-0.17
2022-12-16T11:07:46.820Z,-0.71
2022-12-16T11:13:07.098Z,-0.89
2022-12-16T11:18:35.908Z,-0.68
2022-12-16T11:23:55.913Z,-0.81
2022-12-16T11:29:28.092Z,-0.91
2022-12-16T11:34:48.410Z,-1.30
2022-12-16T11:40:08.530Z,-1.49
2022-12-16T11:45:35.653Z,-1.52
2022-12-16T11:51:01.731Z,-1.45
2022-12-16T11:56:23.637Z,-1.33
2022-12-16T12:01:51.538Z,-1.74
2022-12-16T12:07:45.335Z,-1.79
2022-12-16T12:13:46.771Z,-1.45
2022-12-16T12:19:27.373Z,-1.66
2022-12-16T12:25:09.285Z,-1.78
2022-12-16T12:30:33.696Z,-1.78
2022-12-16T12:36:09.228Z,-2.32
2022-12-16T12:42:05.525Z,-2.37
2022-12-16T12:47:29.361Z,-2.42
2022-12-16T12:53:28.146Z,-2.46
2022-12-16T12:58:53.172Z,-2.25
2022-12-16T13:04:23.500Z,-2.78
2022-12-16T13:09:53.859Z,-3.16
2022-12-16T13:15:51.199Z,-2.68
2022-12-16T13:21:15.453Z,-2.74
2022-12-16T13:26:38.272Z,-2.74
2022-12-16T13:32:20.218Z,-2.57
2022-12-16T13:37:44.392Z,-2.67
2022-12-16T13:43:04.422Z,-2.83
2022-12-16T13:48:46.379Z,-2.63
2022-12-16T13:54:10.553Z,-2.52
2022-12-16T13:59:39.057Z,-2.77
2022-12-16T14:05:03.905Z,-2.71
2022-12-16T14:10:24.663Z,-2.84
2022-12-16T14:15:52.513Z,-2.86
2022-12-16T14:21:21.154Z,-2.99
2022-12-16T14:26:42.415Z,-3.10
2022-12-16T14:32:03.223Z,-3.27
2022-12-16T14:37:38.295Z,-3.10
2022-12-16T14:43:00.004Z,-3.26
2022-12-16T14:48:20.338Z,-3.29
2022-12-16T14:53:42.990Z,-3.38
2022-12-16T14:59:19.972Z,-3.51
2022-12-16T15:04:40.689Z,-3.47
2022-12-16T15:10:08.861Z,-3.73
2022-12-16T15:15:36.650Z,-3.72
2022-12-16T15:21:11.589Z,-3.74
2022-12-16T15:26:46.088Z,-3.65
2022-12-16T15:32:06.437Z,-3.79
2022-12-16T15:37:41.700Z,-3.79
2022-12-16T15:43:02.087Z,-3.84
2022-12-16T15:48:31.913Z,-4.09
2022-12-16T15:53:56.542Z,-3.85
2022-12-16T15:59:32.869Z,-3.91
2022-12-16T16:04:53.407Z,-3.91
2022-12-16T16:10:26.987Z,-3.77
2022-12-16T16:15:47.382Z,-3.83
2022-12-16T16:21:08.665Z,-3.62
2022-12-16T16:26:34.573Z,-3.53
2022-12-16T16:31:59.411Z,-3.55
2022-12-16T16:37:32.596Z,-3.76
2022-12-16T16:42:54.012Z,-3.59
2022-12-16T16:48:31.241Z,-3.92
2022-12-16T16:53:51.599Z,-3.79
2022-12-16T16:59:11.839Z,-3.78
2022-12-16T17:04:32.312Z,-3.83
2022-12-16T17:09:52.384Z,-3.75
2022-12-16T17:15:12.709Z,-3.82
2022-12-16T17:20:34.857Z,-3.56
2022-12-16T17:25:55.267Z,-3.55
2022-12-16T17:31:17.196Z,-3.55
2022-12-16T17:36:38.038Z,-3.63
2022-12-16T17:41:58.298Z,-3.77
2022-12-16T17:47:18.493Z,-4.00
2022-12-16T17:52:38.908Z,-3.98
2022-12-16T17:57:59.286Z,-3.96
2022-12-16T18:03:19.606Z,-3.55
2022-12-16T18:08:39.717Z,-3.81
2022-12-16T18:14:00.556Z,-3.90
2022-12-16T18:19:40.671Z,-3.84
2022-12-16T18:25:01.422Z,-3.55
2022-12-16T18:30:22.533Z,-3.48
2022-12-16T18:35:42.807Z,-3.31
2022-12-16T18:41:02.911Z,-3.28
2022-12-16T18:46:23.344Z,-3.31
2022-12-16T18:51:43.694Z,-3.56
2022-12-16T18:57:03.955Z,-3.32
2022-12-16T19:02:24.432Z,-3.67
2022-12-16T19:07:44.744Z,-3.41
2022-12-16T19:13:04.902Z,-3.27
2022-12-16T19:18:25.155Z,-3.34
2022-12-16T19:23:45.070Z,-3.48
2022-12-16T19:29:05.384Z,-3.42
2022-12-16T19:34:26.613Z,-3.41
2022-12-16T19:39:46.848Z,-3.11
2022-12-16T19:45:07.139Z,-3.30
2022-12-16T19:50:28.039Z,-3.35
2022-12-16T19:55:48.261Z,-3.48
2022-12-16T20:01:10.225Z,-3.35
2022-12-16T20:06:30.897Z,-3.29
2022-12-16T20:11:51.050Z,-3.37
2022-12-16T20:17:11.837Z,-3.26
2022-12-16T20:22:32.058Z,-3.28
2022-12-16T20:27:52.367Z,-3.25
2022-12-16T20:33:13.607Z,-3.39
2022-12-16T20:38:33.886Z,-3.45
2022-12-16T20:43:54.155Z,-3.30
2022-12-16T20:49:16.578Z,-3.21
2022-12-16T20:54:36.679Z,-3.43
2022-12-16T20:59:56.991Z,-3.36
2022-12-16T21:05:17.270Z,-3.43
2022-12-16T21:10:37.899Z,-3.45
2022-12-16T21:15:58.072Z,-3.55
2022-12-16T21:21:18.481Z,-3.80
2022-12-16T21:26:38.786Z,-3.50
2022-12-16T21:31:59.060Z,-3.51
2022-12-16T21:37:19.219Z,-3.39
2022-12-16T21:42:43.687Z,-3.48
2022-12-16T21:48:04.415Z,-3.22
2022-12-16T21:53:24.610Z,-3.07
2022-12-16T21:58:44.921Z,-3.32
2022-12-16T22:04:05.157Z,-3.22
2022-12-16T22:09:25.345Z,-3.06
2022-12-16T22:14:45.503Z,-3.03
2022-12-16T22:20:05.819Z,-3.19
2022-12-16T22:25:26.033Z,-3.11
2022-12-16T22:30:46.549Z,-3.17
2022-12-16T22:36:06.803Z,-3.16
2022-12-16T22:41:27.688Z,-3.31
2022-12-16T22:46:48.333Z,-3.34
2022-12-16T22:52:08.630Z,-3.32
2022-12-16T22:57:29.427Z,-3.45
2022-12-16T23:02:49.751Z,-3.28
2022-12-16T23:08:09.872Z,-3.24
2022-12-16T23:13:31.203Z,-3.27
2022-12-16T23:18:51.275Z,-3.31
2022-12-16T23:24:12.108Z,-3.29
2022-12-16T23:29:32.347Z,-3.14
2022-12-16T23:34:52.739Z,-3.13
2022-12-16T23:40:12.709Z,-3.22
2022-12-16T23:45:32.928Z,-3.38
2022-12-16T23:50:53.131Z,-3.24
2022-12-16T23:56:18.832Z,-3.25
